You are here

Stations

Station Name Date Time Temperature Relative Humidity Precipitation Wind Speed Wind Direction Create Custom Report Daily Report Hourly Report
A&O Farm 2024-29-02 5:15 42.5 45.88 0.00 11.61 NE
Aberdeen VTcrn 2024-29-02 5:15 38.7 65.57 0.00 4.02 NNE
Beaumont Exp Stn 2024-29-02 5:15 46.1 62.10 0.00 3.36 NNE
Bee Lake 2024-29-02 5:15 42.9 52.37 0.00 2.14 ENE
Black Belt F24 VTcrn 2024-29-02 5:15 40.6 57.25 0.00 3.89 NNE
Blk Belt F22-23 VTso 2024-29-02 5:15 41.3 53.70 0.00 7.09 NNE
Brooksville 2024-29-02 5:15 40.5 56.89 0.00 6.63 NE
Brooksville2 VTso 2024-29-02 5:15 39.2 57.56 0.00
Brown Loam Exp. Stn. 2024-29-02 5:15 46.1 48.05 0.00 4.98 ENE
Brown Loam VT1crn/so 2024-29-02 5:15 45.4 43.07 0.00 3.12 NNE
Canton 2024-29-02 5:15 44.0 45.19 0.00 3.27 N
Clarksdale VTso 2024-29-02 5:15 38.5 60.76 0.00
Cleveland 2024-29-02 5:15 40.1 59.17 0.00 8.66 NE
Coastal Res & Ext Cnt 2024-29-02 5:15 53.4 39.17 0.00 4.38 NNW
COOP Stoneville 2024-23-02 7:00 50.0 97 0.77
Cooper Farm 2024-29-02 5:15 44.2 52.45 0.00 8.99 NE
Crystal Sprgs Exp Stn 2024-29-02 5:15 44.9 48.08 0.00 0.00 NE
Greenwood 2024-29-02 5:15 41.5 47.41 0.00 4.09 NE
Holly Bluff 2024-29-02 5:15 44.5 50.18 0.00 3.97 NE
Holly Ridge 2024-29-02 5:15 41.3 51.76 0.00 7.58 NE
Home Cypress Farm 2024-29-02 5:15 39.0 62.27 0.00 3.43 NE
Horn Lake VTcr 2024-29-02 5:15 31.0 93.40 0.00 2.53 N
Lamar 2024-29-02 5:15 28.3 89.20 0.00 0.16 N
Lancaster 2024-29-02 5:15 41.6 52.98 0.00 7.56 NE
Longwood VTso 2024-29-02 5:15 42.5 48.02 0.00 7.26 ENE
Lyon 2024-29-02 5:15 33.0 84.70 0.00 1.71 NE
Macon VTcrn 2024-29-02 5:00 42.5 54.92 0.00 6.75 NNE
Mantee VT 2024-29-02 5:15 37.8 63.63 0.00 0.00 NNE
Minter City VTcn 2024-29-02 5:14
Money 2024-29-02 5:15 40.5 51.35 0.00 7.29 NE
Mound Bayou 2024-29-02 5:15 40.1 56.09 0.00 7.32 ENE
MSU North Farm Starkv 2024-29-02 5:15 39.5 59.51 0.00 3.94 NE
MSU South Farm Starkv 2024-29-02 5:15 39.2 55.78 0.00 5.28 NE
Natchez 2024-29-02 5:15 49.0 44.20 0.00 3.38 ENE
Newton 2024-29-02 5:15 43.8 50.25 0.00 1.85 ENE
Olive Branch2 VTso 2024-29-02 5:15 30.6 92.60 0.00
Onward VTcrn 2024-29-02 5:15 45.2 46.99 0.00
Pontotoc AWS COOP 2024-29-02 5:14
Pontotoc Exp Stn 2024-29-02 5:15 33.3 70.48 0.00 1.98 NW
Poplarville 2024-29-02 5:15 50.4 41.19 0.00 7.15 E
Port Gibson 2024-29-02 5:15 45.6 46.97 0.00 3.19 NNE
Prairie 2024-29-02 5:15 38.3 61.69 0.00 2.75 NNE
Senatobia 2024-29-02 5:15 29.4 91.50 0.00 0.02 E
Shurden Farm 2024-29-02 5:15 38.9 64.39 0.00 7.74 NE
Sidon 2024-29-02 5:15 41.0 50.73 0.00 7.33 NE
Stnville F7 VTcrn/so 2024-29-02 5:15 42.2 56.58 0.00
Stoneville AWS 2024-29-02 5:15 39.9 54.79 0.00 7.57 NE
Stoneville F10 2024-29-02 5:15 41.5 53.35 0.00 9.05 ENE
Stoneville F17 VTso 2024-29-02 5:15 42.7 50.50 0.00
Stoneville W 2024-29-02 5:15 42.1 50.63 0.00 11.39 NE
Stoneville_F8 2024-29-02 5:15 40.5 57.29 0.00 2.75 NE
Stoneville_SW 2024-29-02 5:15 41.8 53.06 0.00 6.61 ENE
Thighman 2024-29-02 5:15 42.5 55.00 0.00 2.63 N
Tippo VTso 2024-29-02 5:15 37.8 59.33 0.00
Tribbett 2024-29-02 5:15 41.8 55.50 0.00 5.29 ENE
Tunica 2024-29-02 5:15 33.8 76.17 0.00 3.52 NE
Verona 2024-29-02 5:15 35.5 67.42 0.00 3.51 NNE
Verona VTcrn/so 2024-29-02 5:15 36.4 65.95 0.00
Vicksburg 2024-29-02 5:15 47.3 45.25 0.00 2.63 N
White Sand 2024-29-02 5:15 51.2 43.71 0.00 7.01 NE
Back to Top